.
WxDataArchive / Data Records for 2007-07-08
2007-07-07 July 2007 2007-07-09

Data Records for Sunday, 08 July 2007

Time	Temp	Chill	HIndex	Humid	Dewpt	 Wind 	HiWind	WindDir	Rain 	Barom 
-----	----	-----	------	-----	-----	------	------	-------	-----	----- 
00:00	66.8	66.8	66.8	75	58.6	0	0	---	0.00	29.821 
00:05	66.8	66.8	66.8	75	58.6	0	0	---	0.00	29.815 
00:10	66.6	66.6	66.6	76	58.8	0	0	---	0.00	29.816 
00:15	66.4	66.4	66.4	76	58.6	0	0	---	0.00	29.818 
00:20	66.4	66.4	66.4	77	59.0	0	0	---	0.00	29.819 
00:25	66.3	66.3	66.3	77	58.9	0	0	---	0.00	29.818 
00:30	66.3	66.3	66.3	78	59.2	0	0	---	0.00	29.817 
00:35	66.1	66.1	66.1	78	59.0	0	0	---	0.00	29.814 
00:40	66.1	66.1	66.1	79	59.4	0	0	---	0.00	29.814 
00:45	66.1	66.1	66.1	79	59.4	0	0	---	0.00	29.815 
00:50	66.1	66.1	66.1	79	59.4	0	0	---	0.00	29.814 
00:55	66.4	66.4	66.4	79	59.7	0	0	---	0.00	29.812 
01:00	66.6	66.6	66.6	78	59.5	0	0	---	0.00	29.809 
01:05	66.6	66.6	66.6	78	59.5	0	0	---	0.00	29.807 
01:10	66.8	66.8	66.8	79	60.1	0	0	---	0.00	29.807 
01:15	66.8	66.8	66.8	78	59.7	0	0	---	0.00	29.806 
01:20	66.8	66.8	66.8	79	60.1	0	0	---	0.00	29.805 
01:25	66.8	66.8	66.8	79	60.1	0	0	---	0.00	29.805 
01:30	66.9	66.9	66.9	79	60.2	0	0	---	0.00	29.802 
01:35	66.9	66.9	66.9	79	60.2	0	0	---	0.00	29.800 
01:40	66.9	66.9	66.9	79	60.2	0	0	---	0.00	29.799 
01:45	66.9	66.9	66.9	79	60.2	0	0	---	0.00	29.795 
01:50	66.9	66.9	66.9	79	60.2	0	0	---	0.00	29.796 
01:55	66.8	66.8	66.8	79	60.1	0	0	---	0.00	29.797 
02:00	66.8	66.8	66.8	79	60.1	0	0	---	0.00	29.795 
02:05	66.6	66.6	66.6	80	60.2	0	0	---	0.00	29.793 
02:10	66.6	66.6	66.6	80	60.2	0	0	---	0.00	29.792 
02:15	66.8	66.8	66.8	80	60.4	0	0	---	0.00	29.792 
02:20	66.9	66.9	66.9	79	60.2	0	1	270	0.00	29.793 
02:25	67.3	67.3	67.3	79	60.6	0	0	---	0.00	29.791 
02:30	67.4	67.4	67.4	78	60.3	0	1	270	0.00	29.790 
02:35	67.8	67.8	67.8	77	60.3	0	1	270	0.00	29.787 
02:40	67.9	67.9	67.9	77	60.4	0	1	270	0.00	29.787 
02:45	68.3	68.3	68.3	76	60.4	0	1	270	0.00	29.786 
02:50	68.6	68.6	68.6	75	60.3	0	1	270	0.00	29.784 
02:55	68.9	68.9	68.9	74	60.3	0	1	270	0.00	29.784 
03:00	69.1	69.1	69.1	73	60.1	0	1	270	0.00	29.783 
03:05	69.3	69.3	69.3	73	60.3	0	1	270	0.00	29.786 
03:10	69.4	69.4	69.4	73	60.4	0	1	270	0.00	29.789 
03:15	69.6	69.6	69.6	72	60.2	0	1	270	0.00	29.787 
03:20	69.8	69.8	69.8	72	60.4	0	1	270	0.00	29.787 
03:25	69.6	69.6	69.6	72	60.2	0	1	270	0.00	29.786 
03:30	69.6	69.6	69.6	72	60.2	0	1	270	0.00	29.786 
03:35	69.6	69.6	69.6	72	60.2	0	2	270	0.00	29.787 
03:40	69.8	69.8	69.8	72	60.4	0	1	270	0.00	29.787 
03:45	69.6	69.6	69.6	72	60.2	0	1	270	0.00	29.789 
03:50	69.6	69.6	69.6	72	60.2	0	1	225	0.00	29.790 
03:55	69.6	69.6	69.6	73	60.6	0	1	225	0.00	29.789 
04:00	69.6	69.6	69.6	73	60.6	0	1	225	0.00	29.789 
04:05	69.6	69.6	69.6	73	60.6	0	1	225	0.00	29.790 
04:10	69.8	69.8	69.8	73	60.7	0	2	225	0.00	29.789 
04:15	69.8	69.8	69.8	73	60.7	0	1	225	0.00	29.790 
04:20	69.9	69.9	69.9	73	60.8	0	2	225	0.00	29.791 
04:25	69.9	69.9	69.9	73	60.8	0	1	225	0.00	29.791 
04:30	69.8	69.8	69.8	73	60.7	0	0	---	0.00	29.792 
04:35	69.6	69.6	69.6	73	60.6	0	1	225	0.00	29.791 
04:40	69.4	69.4	69.4	74	60.7	0	1	225	0.00	29.791 
04:45	69.6	69.6	69.6	74	60.9	0	3	225	0.00	29.792 
04:50	69.6	69.6	69.6	74	60.9	0	1	225	0.00	29.792 
04:55	69.6	69.6	69.6	74	60.9	0	3	248	0.00	29.792 
05:00	69.6	69.6	69.6	74	60.9	0	1	248	0.00	29.791 
05:05	69.6	69.6	69.6	74	60.9	0	2	248	0.00	29.791 
05:10	69.6	69.6	69.6	74	60.9	0	0	---	0.00	29.792 
05:15	69.6	69.6	69.6	74	60.9	0	1	248	0.00	29.793 
05:20	69.6	69.6	69.6	74	60.9	0	1	248	0.00	29.794 
05:25	69.4	69.4	69.4	74	60.7	0	1	248	0.00	29.797 
05:30	69.4	69.4	69.4	74	60.7	0	1	248	0.00	29.799 
05:35	69.4	69.4	69.4	74	60.7	0	1	248	0.00	29.799 
05:40	69.6	69.6	69.6	74	60.9	0	2	248	0.00	29.796 
05:45	69.8	69.8	69.8	74	61.1	0	1	248	0.00	29.797 
05:50	69.9	69.9	69.9	74	61.2	0	1	248	0.00	29.798 
05:55	70.3	70.3	70.3	73	61.2	0	1	248	0.00	29.800 
06:00	70.6	70.6	70.6	73	61.5	0	2	248	0.00	29.800 
06:05	70.8	70.8	70.8	73	61.7	0	2	248	0.00	29.800 
06:10	71.1	71.1	71.1	72	61.6	1	2	248	0.00	29.796 
06:15	71.3	71.3	71.3	72	61.8	0	3	248	0.00	29.797 
06:20	71.5	71.5	71.5	72	62.0	0	1	248	0.00	29.796 
06:25	71.6	71.6	71.6	71	61.7	1	2	248	0.00	29.795 
06:30	71.8	71.8	71.8	70	61.5	1	3	248	0.00	29.793 
06:35	72.1	72.1	72.1	70	61.8	1	3	248	0.00	29.792 
06:40	72.3	72.3	72.3	70	62.0	1	3	248	0.00	29.792 
06:45	72.7	72.7	72.7	69	61.9	1	3	225	0.00	29.791 
06:50	73.0	73.0	73.0	69	62.2	1	4	248	0.00	29.790 
06:55	73.3	73.3	73.3	68	62.1	1	4	270	0.00	29.790 
07:00	73.7	73.7	73.7	67	62.0	1	3	270	0.00	29.788 
07:05	74.0	74.0	74.0	67	62.3	2	4	248	0.00	29.791 
07:10	74.4	74.4	74.4	66	62.3	2	4	248	0.00	29.789 
07:15	74.9	74.9	74.9	65	62.3	2	5	248	0.00	29.790 
07:20	75.3	75.3	77.4	64	62.3	2	5	248	0.00	29.792 
07:25	75.6	75.6	77.6	63	62.1	2	3	248	0.00	29.791 
07:30	76.0	76.0	77.9	63	62.5	2	5	248	0.00	29.791 
07:35	76.3	76.3	78.2	63	62.8	2	3	248	0.00	29.790 
07:40	76.7	76.7	78.5	62	62.7	2	4	248	0.00	29.789 
07:45	77.2	77.2	79.0	61	62.7	3	9	270	0.00	29.790 
07:50	77.4	77.4	79.1	61	62.9	3	6	248	0.00	29.791 
07:55	77.7	77.7	79.4	61	63.2	2	5	270	0.00	29.794 
08:00	78.1	78.1	79.8	61	63.5	2	5	248	0.00	29.796 
08:05	78.3	78.3	79.9	59	62.8	3	7	270	0.00	29.797 
08:10	78.6	78.6	80.2	59	63.1	3	9	248	0.00	29.793 
08:15	79.0	79.0	80.7	60	63.9	2	4	270	0.00	29.792 
08:20	79.4	79.4	81.0	59	63.8	3	6	248	0.00	29.792 
08:25	79.9	79.9	81.5	58	63.8	2	3	248	0.00	29.791 
08:30	80.3	80.3	81.9	58	64.2	2	4	270	0.00	29.794 
08:35	80.7	80.7	82.2	56	63.5	4	6	270	0.00	29.792 
08:40	81.1	81.1	82.8	57	64.4	2	4	270	0.00	29.793 
08:45	81.6	81.6	83.2	56	64.4	2	4	248	0.00	29.791 
08:50	82.0	82.0	83.6	55	64.2	3	7	248	0.00	29.791 
08:55	82.4	82.4	83.9	54	64.1	3	4	248	0.00	29.792 
09:00	82.6	82.6	84.1	54	64.2	3	7	270	0.00	29.789 
09:05	82.8	82.8	84.4	54	64.4	3	6	270	0.00	29.791 
09:10	83.2	83.2	84.9	54	64.8	3	7	270	0.00	29.792 
09:15	83.6	83.6	85.2	53	64.6	3	5	270	0.00	29.792 
09:20	83.8	83.8	85.5	53	64.8	3	7	270	0.00	29.792 
09:25	83.8	83.8	85.7	54	65.3	3	5	270	0.00	29.791 
09:30	84.3	84.3	86.5	54	65.8	2	6	270	0.00	29.791 
09:35	84.7	84.7	86.8	53	65.6	3	11	270	0.00	29.790 
09:40	84.5	84.5	86.3	52	64.9	4	11	248	0.00	29.791 
09:45	84.5	84.5	86.5	53	65.5	4	7	270	0.00	29.791 
09:50	84.9	84.9	87.1	53	65.8	3	5	270	0.00	29.790 
09:55	85.1	85.1	86.9	51	64.9	3	7	248	0.00	29.789 
10:00	85.3	85.3	87.1	51	65.1	4	7	270	0.00	29.788 
10:05	85.1	85.1	86.9	51	64.9	4	7	270	0.00	29.791 
10:10	85.5	85.5	87.7	52	65.8	3	9	270	0.00	29.791 
10:15	85.7	85.7	87.7	51	65.5	3	6	270	0.00	29.791 
10:20	85.9	85.9	87.7	50	65.1	3	7	248	0.00	29.790 
10:25	85.9	85.9	87.7	50	65.1	4	7	270	0.00	29.792 
10:30	86.5	86.5	88.9	51	66.2	3	7	270	0.00	29.791 
10:35	87.2	87.2	89.7	50	66.3	2	5	248	0.00	29.789 
10:40	87.2	87.2	89.4	49	65.7	4	7	270	0.00	29.787 
10:45	87.4	87.4	89.7	49	65.9	2	5	270	0.00	29.789 
10:50	87.8	87.8	90.0	48	65.6	3	10	270	0.00	29.789 
10:55	88.2	88.2	90.0	46	64.8	3	6	270	0.00	29.789 
11:00	88.4	88.4	90.6	47	65.6	2	6	248	0.00	29.789 
11:05	88.2	88.2	90.0	46	64.8	3	10	270	0.00	29.789 
11:10	88.6	88.6	90.6	46	65.1	3	5	270	0.00	29.786 
11:15	89.0	89.0	91.2	46	65.5	2	5	270	0.00	29.788 
11:20	89.0	89.0	91.2	46	65.5	3	6	270	0.00	29.789 
11:25	88.8	88.8	90.9	46	65.3	3	5	270	0.00	29.786 
11:30	89.3	89.3	91.0	44	64.5	3	7	270	0.00	29.785 
11:35	89.7	89.7	91.3	43	64.2	3	6	270	0.00	29.784 
11:40	89.5	89.5	91.3	44	64.7	3	8	270	0.00	29.787 
11:45	89.5	89.5	91.0	43	64.0	3	6	270	0.00	29.785 
11:50	89.3	89.3	90.3	42	63.2	4	7	270	0.00	29.778 
11:55	89.5	89.5	91.0	43	64.0	2	6	270	0.00	29.778 
12:00	89.9	89.9	91.6	43	64.4	3	5	270	0.00	29.776 
12:05	90.7	90.7	91.7	40	63.0	3	6	248	0.00	29.775 
12:10	91.0	91.0	92.6	41	64.0	2	5	248	0.00	29.775 
12:15	91.4	91.4	92.4	39	62.9	2	5	270	0.00	29.774 
12:20	91.4	91.4	91.7	37	61.4	3	5	270	0.00	29.777 
12:25	91.0	91.0	91.8	39	62.6	3	6	270	0.00	29.775 
12:30	91.2	91.2	92.5	40	63.5	3	6	270	0.00	29.776 
12:35	91.6	91.6	93.9	42	65.2	2	4	315	0.00	29.775 
12:40	92.5	92.5	94.2	39	63.9	1	5	292	0.00	29.774 
12:45	92.9	92.9	94.4	38	63.5	2	4	248	0.00	29.770 
12:50	92.7	92.7	92.9	35	61.0	3	7	270	0.00	29.772 
12:55	92.9	92.9	94.0	37	62.7	2	5	270	0.00	29.766 
13:00	93.4	93.4	95.7	39	64.7	1	5	270	0.00	29.760 
13:05	93.8	93.8	95.4	37	63.5	3	7	270	0.00	29.760 
13:10	93.6	93.6	94.3	35	61.8	3	8	270	0.00	29.758 
13:15	93.2	93.2	93.7	35	61.4	3	6	270	0.00	29.758 
13:20	93.6	93.6	95.5	38	64.1	2	4	248	0.00	29.757 
13:25	93.8	93.8	94.6	35	61.9	3	9	270	0.00	29.757 
13:30	94.0	94.0	94.9	35	62.1	2	6	270	0.00	29.755 
13:35	94.0	94.0	94.5	34	61.3	3	6	270	0.00	29.755 
13:40	93.8	93.8	94.6	35	61.9	3	11	248	0.00	29.753 
13:45	93.6	93.6	94.7	36	62.6	2	5	270	0.00	29.749 
13:50	93.4	93.4	94.0	35	61.6	4	10	248	0.00	29.751 
13:55	93.8	93.8	94.2	34	61.1	3	6	248	0.00	29.749 
14:00	94.0	94.0	94.5	34	61.3	3	6	270	0.00	29.751 
14:05	93.8	93.8	94.2	34	61.1	3	6	270	0.00	29.747 
14:10	93.8	93.8	93.8	33	60.3	3	6	248	0.00	29.748 
14:15	94.3	94.3	94.5	33	60.7	2	4	270	0.00	29.742 
14:20	94.5	94.5	94.4	32	60.0	4	9	270	0.00	29.742 
14:25	94.3	94.3	94.5	33	60.7	3	6	248	0.00	29.742 
14:30	94.7	94.7	95.1	33	61.1	2	5	248	0.00	29.738 
14:35	94.7	94.7	94.4	31	59.3	3	6	270	0.00	29.739 
14:40	94.0	94.0	94.5	34	61.3	4	6	270	0.00	29.741 
14:45	94.3	94.3	94.5	33	60.7	3	6	270	0.00	29.739 
14:50	94.3	94.3	94.5	33	60.7	3	6	270	0.00	29.736 
14:55	94.5	94.5	94.8	33	60.9	2	6	270	0.00	29.739 
15:00	94.5	94.5	95.7	35	62.6	2	5	270	0.00	29.739 
15:05	94.5	94.5	95.3	34	61.7	3	6	270	0.00	29.737 
15:10	94.0	94.0	93.7	32	59.6	4	7	270	0.00	29.735 
15:15	93.4	93.4	93.6	34	60.8	3	5	292	0.00	29.727 
15:20	93.8	93.8	94.2	34	61.1	3	7	270	0.00	29.727 
15:25	94.0	94.0	94.9	35	62.1	3	7	270	0.00	29.724 
15:30	94.5	94.5	95.3	34	61.7	3	7	270	0.00	29.725 
15:35	94.5	94.5	95.7	35	62.6	3	10	248	0.00	29.724 
15:40	94.3	94.3	94.9	34	61.6	3	10	248	0.00	29.724 
15:45	94.5	94.5	95.3	34	61.7	2	5	270	0.00	29.723 
15:50	94.7	94.7	96.0	35	62.7	3	6	270	0.00	29.723 
15:55	94.7	94.7	95.6	34	61.9	3	5	270	0.00	29.723 
16:00	94.5	94.5	95.7	35	62.6	2	5	270	0.00	29.723 
16:05	94.3	94.3	94.9	34	61.6	3	6	270	0.00	29.723 
16:10	94.0	94.0	95.3	36	62.9	3	6	270	0.00	29.721 
16:15	94.3	94.3	95.4	35	62.4	3	5	270	0.00	29.719 
16:20	93.6	93.6	94.7	36	62.6	3	9	270	0.00	29.717 
16:25	93.8	93.8	94.6	35	61.9	2	7	248	0.00	29.714 
16:30	93.8	93.8	94.6	35	61.9	3	5	270	0.00	29.714 
16:35	93.8	93.8	94.2	34	61.1	3	5	248	0.00	29.713 
16:40	93.8	93.8	94.6	35	61.9	3	6	270	0.00	29.709 
16:45	93.6	93.6	95.1	37	63.4	2	6	292	0.00	29.709 
16:50	93.6	93.6	95.1	37	63.4	3	7	248	0.00	29.708 
16:55	93.2	93.2	94.9	38	63.8	3	6	270	0.00	29.710 
17:00	92.9	92.9	94.4	38	63.5	2	5	270	0.00	29.708 
17:05	92.7	92.7	94.5	39	64.1	3	6	248	0.00	29.708 
17:10	92.7	92.7	94.1	38	63.3	2	9	248	0.00	29.710 
17:15	92.5	92.5	94.2	39	63.9	2	10	270	0.00	29.708 
17:20	92.5	92.5	94.2	39	63.9	2	12	270	0.00	29.707 
17:25	92.5	92.5	94.2	39	63.9	2	6	270	0.00	29.707 
17:30	92.3	92.3	93.8	39	63.7	2	12	270	0.00	29.708 
17:35	91.8	91.8	93.4	40	64.0	3	5	270	0.00	29.708 
17:40	91.8	91.8	93.1	39	63.3	3	7	270	0.00	29.709 
17:45	91.4	91.4	92.8	40	63.6	3	7	270	0.00	29.708 
17:50	91.2	91.2	92.9	41	64.2	2	4	270	0.00	29.707 
17:55	90.5	90.5	92.5	43	64.9	3	8	248	0.00	29.707 
18:00	90.3	90.3	92.2	43	64.7	2	5	248	0.00	29.708 
18:05	90.3	90.3	92.2	43	64.7	2	5	270	0.00	29.706 
18:10	90.3	90.3	92.2	43	64.7	2	5	270	0.00	29.709 
18:15	89.9	89.9	91.9	44	65.0	3	7	248	0.00	29.709 
18:20	89.9	89.9	91.9	44	65.0	2	5	248	0.00	29.708 
18:25	89.9	89.9	91.9	44	65.0	2	9	248	0.00	29.706 
18:30	89.7	89.7	91.6	44	64.8	3	6	270	0.00	29.707 
18:35	89.5	89.5	91.3	44	64.7	2	6	248	0.00	29.708 
18:40	89.3	89.3	91.0	44	64.5	3	9	270	0.00	29.710 
18:45	89.0	89.0	90.5	44	64.2	3	5	270	0.00	29.711 
18:50	89.0	89.0	90.9	45	64.9	3	7	270	0.00	29.715 
18:55	88.8	88.8	90.9	46	65.3	3	6	248	0.00	29.720 
19:00	88.6	88.6	90.3	45	64.5	3	5	248	0.00	29.719 
19:05	88.6	88.6	90.3	45	64.5	3	5	270	0.00	29.712 
19:10	88.4	88.4	90.0	45	64.3	3	5	248	0.00	29.711 
19:15	88.2	88.2	89.7	45	64.1	2	5	248	0.00	29.712 
19:20	88.0	88.0	89.7	46	64.6	2	9	248	0.00	29.715 
19:25	87.8	87.8	89.7	47	65.0	2	6	270	0.00	29.717 
19:30	87.8	87.8	89.7	47	65.0	3	7	270	0.00	29.718 
19:35	87.6	87.6	89.4	47	64.8	3	7	270	0.00	29.717 
19:40	87.4	87.4	89.4	48	65.3	3	6	270	0.00	29.720 
19:45	87.0	87.0	89.1	49	65.5	2	5	248	0.00	29.718 
19:50	87.0	87.0	89.4	50	66.1	2	4	248	0.00	29.721 
19:55	86.7	86.7	88.9	50	65.8	2	5	248	0.00	29.724 
20:00	86.7	86.7	88.9	50	65.8	2	5	248	0.00	29.733 
20:05	86.3	86.3	88.6	51	66.0	1	3	270	0.00	29.730 
20:10	85.9	85.9	88.3	52	66.2	0	2	270	0.00	29.730 
20:15	85.7	85.7	88.3	53	66.6	1	4	248	0.00	29.733 
20:20	85.7	85.7	88.3	53	66.6	2	5	292	0.00	29.732 
20:25	85.5	85.5	88.3	54	66.9	1	3	270	0.00	29.735 
20:30	85.3	85.3	88.0	54	66.7	1	4	248	0.00	29.736 
20:35	85.3	85.3	88.0	54	66.7	1	4	248	0.00	29.737 
20:40	85.3	85.3	88.0	54	66.7	2	4	248	0.00	29.739 
20:45	85.3	85.3	88.0	54	66.7	2	5	248	0.00	29.744 
20:50	85.1	85.1	87.9	55	67.1	2	5	248	0.00	29.749 
20:55	84.9	84.9	87.6	55	66.9	1	3	248	0.00	29.752 
21:00	84.7	84.7	87.6	56	67.2	1	3	270	0.00	29.754 
21:05	84.7	84.7	87.6	56	67.2	2	5	248	0.00	29.754 
21:10	84.7	84.7	87.6	56	67.2	1	4	270	0.00	29.759 
21:15	84.3	84.3	87.2	57	67.4	1	3	270	0.00	29.765 
21:20	84.1	84.1	87.2	58	67.7	1	3	270	0.00	29.765 
21:25	84.0	84.0	87.0	58	67.6	1	2	270	0.00	29.765 
21:30	83.8	83.8	86.7	58	67.4	1	3	248	0.00	29.765 
21:35	83.6	83.6	86.6	59	67.7	1	2	248	0.00	29.765 
21:40	83.6	83.6	86.6	59	67.7	1	3	248	0.00	29.765 
21:45	83.6	83.6	86.6	59	67.7	1	4	270	0.00	29.766 
21:50	83.4	83.4	86.3	59	67.5	1	2	270	0.00	29.768 
21:55	83.0	83.0	85.9	60	67.7	0	3	270	0.00	29.766 
22:00	82.8	82.8	85.6	60	67.5	1	3	248	0.00	29.767 
22:05	83.0	83.0	85.9	60	67.7	1	4	248	0.00	29.765 
22:10	82.8	82.8	85.6	60	67.5	1	4	248	0.00	29.764 
22:15	82.6	82.6	85.5	61	67.8	0	2	248	0.00	29.765 
22:20	82.4	82.4	85.2	61	67.6	1	2	248	0.00	29.767 
22:25	82.4	82.4	85.2	61	67.6	1	4	248	0.00	29.769 
22:30	82.4	82.4	85.2	61	67.6	1	3	225	0.00	29.774 
22:35	82.2	82.2	85.1	62	67.9	1	3	248	0.00	29.773 
22:40	82.0	82.0	84.8	62	67.7	0	2	248	0.00	29.774 
22:45	81.8	81.8	84.5	62	67.5	1	3	248	0.00	29.774 
22:50	81.8	81.8	84.5	62	67.5	1	2	270	0.00	29.771 
22:55	81.6	81.6	84.4	63	67.8	1	2	248	0.00	29.771 
23:00	81.4	81.4	84.1	63	67.6	0	2	248	0.00	29.769 
23:05	81.2	81.2	84.0	64	67.8	0	1	248	0.00	29.768 
23:10	81.2	81.2	84.0	64	67.8	1	3	248	0.00	29.767 
23:15	81.2	81.2	83.8	63	67.4	1	2	248	0.00	29.765 
23:20	81.1	81.1	83.8	64	67.7	0	3	248	0.00	29.764 
23:25	80.9	80.9	83.5	64	67.6	1	5	248	0.00	29.762 
23:30	80.7	80.7	83.4	65	67.8	1	4	292	0.00	29.764 
23:35	80.7	80.7	83.4	65	67.8	1	3	292	0.00	29.763 
23:40	80.7	80.7	83.4	65	67.8	0	2	292	0.00	29.761 
23:45	80.5	80.5	83.1	65	67.6	1	3	270	0.00	29.756 
23:50	80.3	80.3	82.8	65	67.4	1	5	270	0.00	29.756 
23:55	80.3	80.3	82.8	65	67.4	1	3	248	0.00	29.756 

CoCoRaHS
IN-AL-39
A2 Web Hosting
Creative Commons License
GoDaddy
Look for:

loaded 2017-12-13 02:41:11 • last modified 2010-11-18 10:43:29
Privacy PolicyDisclaimer
• wx.awcolley.com is powered by PmWiki v.2002016 •
• all content (unless otherwise noted) © 2017 A W Colley